sensor_id;sensor_type;location;lat;lon;timestamp;pressure;altitude;pressure_sealevel;temperature;humidity
74578;BME280;63173;49.086;33.418;2023-07-31T00:01:57;99782.22;;;37.03;30.09
74578;BME280;63173;49.086;33.418;2023-07-31T00:04:22;99769.16;;;37.61;29.60
74578;BME280;63173;49.086;33.418;2023-07-31T00:06:48;99760.78;;;37.11;30.47
74578;BME280;63173;49.086;33.418;2023-07-31T00:09:13;99760.66;;;37.38;30.10
74578;BME280;63173;49.086;33.418;2023-07-31T00:11:38;99755.34;;;36.47;32.00
74578;BME280;63173;49.086;33.418;2023-07-31T00:14:04;99750.50;;;36.90;31.38
74578;BME280;63173;49.086;33.418;2023-07-31T00:16:29;99744.53;;;35.55;32.74
74578;BME280;63173;49.086;33.418;2023-07-31T00:18:55;99748.81;;;36.74;31.27
74578;BME280;63173;49.086;33.418;2023-07-31T00:21:20;99747.38;;;36.10;32.74
74578;BME280;63173;49.086;33.418;2023-07-31T00:23:46;99743.22;;;37.54;30.71
74578;BME280;63173;49.086;33.418;2023-07-31T00:26:11;99737.09;;;36.57;31.62
74578;BME280;63173;49.086;33.418;2023-07-31T00:28:37;99737.50;;;36.05;32.95
74578;BME280;63173;49.086;33.418;2023-07-31T00:31:02;99749.41;;;34.97;34.05
74578;BME280;63173;49.086;33.418;2023-07-31T00:33:30;99745.00;;;36.17;32.07
74578;BME280;63173;49.086;33.418;2023-07-31T00:35:56;99757.44;;;35.08;33.94
74578;BME280;63173;49.086;33.418;2023-07-31T00:38:21;99752.88;;;36.22;32.96
74578;BME280;63173;49.086;33.418;2023-07-31T00:40:46;99745.81;;;36.09;32.29
74578;BME280;63173;49.086;33.418;2023-07-31T00:43:12;99745.47;;;36.34;33.26
74578;BME280;63173;49.086;33.418;2023-07-31T00:45:37;99738.72;;;36.40;32.63
74578;BME280;63173;49.086;33.418;2023-07-31T00:48:04;99741.53;;;37.95;30.13
74578;BME280;63173;49.086;33.418;2023-07-31T00:50:31;99741.63;;;36.64;32.09
74578;BME280;63173;49.086;33.418;2023-07-31T00:52:58;99742.75;;;35.40;33.50
74578;BME280;63173;49.086;33.418;2023-07-31T00:55:24;99743.94;;;35.69;32.73
74578;BME280;63173;49.086;33.418;2023-07-31T00:57:49;99742.34;;;35.68;33.68
74578;BME280;63173;49.086;33.418;2023-07-31T01:00:15;99744.84;;;36.30;32.28
74578;BME280;63173;49.086;33.418;2023-07-31T01:02:41;99749.34;;;35.37;34.38
74578;BME280;63173;49.086;33.418;2023-07-31T01:05:06;99736.19;;;36.93;31.64
74578;BME280;63173;49.086;33.418;2023-07-31T01:07:42;99742.09;;;37.60;30.28
74578;BME280;63173;49.086;33.418;2023-07-31T01:12:45;99742.66;;;35.79;33.24
74578;BME280;63173;49.086;33.418;2023-07-31T01:15:11;99746.84;;;37.78;30.12
74578;BME280;63173;49.086;33.418;2023-07-31T01:17:38;99757.59;;;39.34;27.79
74578;BME280;63173;49.086;33.418;2023-07-31T01:20:07;99752.56;;;40.04;26.99
74578;BME280;63173;49.086;33.418;2023-07-31T01:23:01;99760.75;;;38.43;28.82
74578;BME280;63173;49.086;33.418;2023-07-31T01:28:01;99756.69;;;37.68;29.92
74578;BME280;63173;49.086;33.418;2023-07-31T01:30:33;99764.31;;;36.46;31.75
74578;BME280;63173;49.086;33.418;2023-07-31T01:33:01;99772.00;;;38.67;28.69
74578;BME280;63173;49.086;33.418;2023-07-31T01:35:33;99770.75;;;40.38;26.22
74578;BME280;63173;49.086;33.418;2023-07-31T01:37:59;99768.75;;;41.06;25.16
74578;BME280;63173;49.086;33.418;2023-07-31T01:40:24;99773.38;;;39.96;26.68
74578;BME280;63173;49.086;33.418;2023-07-31T01:42:49;99774.59;;;40.86;25.83
74578;BME280;63173;49.086;33.418;2023-07-31T01:45:15;99780.75;;;40.33;26.38
74578;BME280;63173;49.086;33.418;2023-07-31T01:47:40;99775.16;;;39.73;27.51
74578;BME280;63173;49.086;33.418;2023-07-31T01:50:06;99781.53;;;39.88;27.20
74578;BME280;63173;49.086;33.418;2023-07-31T01:52:31;99782.53;;;40.25;26.15
74578;BME280;63173;49.086;33.418;2023-07-31T01:54:57;99780.44;;;40.00;27.00
74578;BME280;63173;49.086;33.418;2023-07-31T01:57:22;99787.63;;;39.06;27.96
74578;BME280;63173;49.086;33.418;2023-07-31T01:59:48;99793.16;;;38.51;28.63
74578;BME280;63173;49.086;33.418;2023-07-31T02:02:13;99789.25;;;39.27;27.84
74578;BME280;63173;49.086;33.418;2023-07-31T02:04:38;99796.56;;;39.14;28.31
74578;BME280;63173;49.086;33.418;2023-07-31T02:07:05;99799.69;;;37.01;32.86
74578;BME280;63173;49.086;33.418;2023-07-31T02:09:30;99801.38;;;38.49;31.06
74578;BME280;63173;49.086;33.418;2023-07-31T02:11:56;99811.66;;;37.38;32.40
74578;BME280;63173;49.086;33.418;2023-07-31T02:14:21;99801.84;;;36.55;34.05
74578;BME280;63173;49.086;33.418;2023-07-31T02:16:47;99802.75;;;36.70;33.30
74578;BME280;63173;49.086;33.418;2023-07-31T02:19:12;99798.91;;;36.14;34.30
74578;BME280;63173;49.086;33.418;2023-07-31T02:21:38;99788.88;;;36.81;34.17
74578;BME280;63173;49.086;33.418;2023-07-31T02:24:03;99797.78;;;37.63;32.28
74578;BME280;63173;49.086;33.418;2023-07-31T02:26:29;99782.56;;;36.36;34.04
74578;BME280;63173;49.086;33.418;2023-07-31T02:28:54;99794.97;;;35.84;35.80
74578;BME280;63173;49.086;33.418;2023-07-31T02:31:19;99803.00;;;35.94;34.63
74578;BME280;63173;49.086;33.418;2023-07-31T02:33:45;99798.94;;;37.33;32.22
74578;BME280;63173;49.086;33.418;2023-07-31T02:36:10;99797.34;;;36.22;34.10
74578;BME280;63173;49.086;33.418;2023-07-31T02:38:36;99784.75;;;36.41;34.87
74578;BME280;63173;49.086;33.418;2023-07-31T02:41:01;99789.34;;;36.98;33.24
74578;BME280;63173;49.086;33.418;2023-07-31T02:43:26;99791.03;;;36.36;34.38
74578;BME280;63173;49.086;33.418;2023-07-31T02:45:52;99789.97;;;37.82;31.41
74578;BME280;63173;49.086;33.418;2023-07-31T02:48:18;99786.88;;;38.77;29.83
74578;BME280;63173;49.086;33.418;2023-07-31T02:50:45;99797.72;;;38.49;30.03
74578;BME280;63173;49.086;33.418;2023-07-31T02:53:10;99789.97;;;38.35;30.71
74578;BME280;63173;49.086;33.418;2023-07-31T02:55:35;99792.13;;;39.47;28.46
74578;BME280;63173;49.086;33.418;2023-07-31T02:58:01;99793.63;;;38.79;30.41
74578;BME280;63173;49.086;33.418;2023-07-31T03:00:27;99793.59;;;38.50;30.53
74578;BME280;63173;49.086;33.418;2023-07-31T03:02:53;99792.44;;;37.65;31.37
74578;BME280;63173;49.086;33.418;2023-07-31T03:05:18;99792.59;;;36.37;33.64
74578;BME280;63173;49.086;33.418;2023-07-31T03:07:43;99786.59;;;37.45;31.94
74578;BME280;63173;49.086;33.418;2023-07-31T03:10:09;99787.63;;;38.92;29.47
74578;BME280;63173;49.086;33.418;2023-07-31T03:12:34;99793.00;;;37.79;31.81
74578;BME280;63173;49.086;33.418;2023-07-31T03:15:00;99788.13;;;37.14;32.37
74578;BME280;63173;49.086;33.418;2023-07-31T03:17:25;99782.41;;;37.32;33.01
74578;BME280;63173;49.086;33.418;2023-07-31T03:19:51;99785.41;;;38.81;29.91
74578;BME280;63173;49.086;33.418;2023-07-31T03:22:16;99796.75;;;38.52;30.24
74578;BME280;63173;49.086;33.418;2023-07-31T03:24:41;99787.28;;;38.02;31.12
74578;BME280;63173;49.086;33.418;2023-07-31T03:27:07;99793.09;;;36.95;33.00
74578;BME280;63173;49.086;33.418;2023-07-31T03:29:32;99793.41;;;36.97;32.37
74578;BME280;63173;49.086;33.418;2023-07-31T03:31:58;99797.66;;;38.05;31.37
74578;BME280;63173;49.086;33.418;2023-07-31T03:34:24;99799.06;;;37.39;32.91
74578;BME280;63173;49.086;33.418;2023-07-31T03:36:49;99793.44;;;38.01;31.46
74578;BME280;63173;49.086;33.418;2023-07-31T03:39:15;99802.22;;;37.64;32.21
74578;BME280;63173;49.086;33.418;2023-07-31T03:41:40;99805.22;;;37.85;31.38
74578;BME280;63173;49.086;33.418;2023-07-31T03:44:06;99803.03;;;38.03;31.32
74578;BME280;63173;49.086;33.418;2023-07-31T03:46:31;99802.53;;;37.01;32.83
74578;BME280;63173;49.086;33.418;2023-07-31T03:48:56;99806.25;;;36.65;33.03
74578;BME280;63173;49.086;33.418;2023-07-31T03:51:22;99808.88;;;35.51;36.54
74578;BME280;63173;49.086;33.418;2023-07-31T03:53:47;99807.34;;;35.11;37.59
74578;BME280;63173;49.086;33.418;2023-07-31T03:56:13;99812.88;;;36.08;35.56
74578;BME280;63173;49.086;33.418;2023-07-31T03:58:38;99814.19;;;34.79;38.12
74578;BME280;63173;49.086;33.418;2023-07-31T04:01:04;99815.50;;;35.57;36.41
74578;BME280;63173;49.086;33.418;2023-07-31T04:03:30;99830.00;;;36.05;36.45
74578;BME280;63173;49.086;33.418;2023-07-31T04:05:55;99830.75;;;37.85;33.51
74578;BME280;63173;49.086;33.418;2023-07-31T04:08:21;99836.63;;;37.96;32.35
74578;BME280;63173;49.086;33.418;2023-07-31T04:10:47;99842.22;;;37.57;32.56
74578;BME280;63173;49.086;33.418;2023-07-31T04:13:12;99845.19;;;37.63;33.02
74578;BME280;63173;49.086;33.418;2023-07-31T04:15:38;99847.41;;;37.35;32.87
74578;BME280;63173;49.086;33.418;2023-07-31T04:18:04;99849.44;;;37.26;33.19
74578;BME280;63173;49.086;33.418;2023-07-31T04:20:30;99837.59;;;36.95;33.39
74578;BME280;63173;49.086;33.418;2023-07-31T04:22:55;99843.50;;;37.56;32.49
74578;BME280;63173;49.086;33.418;2023-07-31T04:25:21;99840.81;;;37.20;32.57
74578;BME280;63173;49.086;33.418;2023-07-31T04:27:46;99840.09;;;38.14;31.67
74578;BME280;63173;49.086;33.418;2023-07-31T04:30:12;99852.63;;;37.84;31.87
74578;BME280;63173;49.086;33.418;2023-07-31T04:32:37;99854.75;;;35.73;35.19
74578;BME280;63173;49.086;33.418;2023-07-31T04:35:03;99847.03;;;37.42;33.34
74578;BME280;63173;49.086;33.418;2023-07-31T04:37:29;99855.38;;;37.69;32.29
74578;BME280;63173;49.086;33.418;2023-07-31T04:39:54;99847.25;;;38.10;31.35
74578;BME280;63173;49.086;33.418;2023-07-31T04:42:19;99841.47;;;38.04;31.60
74578;BME280;63173;49.086;33.418;2023-07-31T04:44:45;99848.91;;;38.40;30.70
74578;BME280;63173;49.086;33.418;2023-07-31T04:47:10;99850.41;;;38.79;30.28
74578;BME280;63173;49.086;33.418;2023-07-31T04:49:36;99838.53;;;39.24;29.82
74578;BME280;63173;49.086;33.418;2023-07-31T04:52:01;99844.69;;;38.50;31.41
74578;BME280;63173;49.086;33.418;2023-07-31T04:54:27;99835.75;;;39.10;30.42
74578;BME280;63173;49.086;33.418;2023-07-31T04:56:52;99834.53;;;39.31;29.38
74578;BME280;63173;49.086;33.418;2023-07-31T04:59:18;99841.00;;;38.44;31.11
74578;BME280;63173;49.086;33.418;2023-07-31T05:01:43;99826.81;;;40.52;28.44
74578;BME280;63173;49.086;33.418;2023-07-31T05:04:13;99833.78;;;39.16;31.01
74578;BME280;63173;49.086;33.418;2023-07-31T05:06:39;99831.31;;;40.18;29.36
74578;BME280;63173;49.086;33.418;2023-07-31T05:09:04;99837.78;;;38.80;31.00
74578;BME280;63173;49.086;33.418;2023-07-31T05:11:30;99826.72;;;38.53;31.53
74578;BME280;63173;49.086;33.418;2023-07-31T05:13:55;99833.34;;;38.50;31.59
74578;BME280;63173;49.086;33.418;2023-07-31T05:16:20;99822.47;;;38.63;31.27
74578;BME280;63173;49.086;33.418;2023-07-31T05:18:46;99835.31;;;38.44;32.11
74578;BME280;63173;49.086;33.418;2023-07-31T05:21:11;99835.47;;;38.40;32.58
74578;BME280;63173;49.086;33.418;2023-07-31T05:23:37;99834.72;;;38.54;32.59
74578;BME280;63173;49.086;33.418;2023-07-31T05:26:06;99822.78;;;39.23;31.42
74578;BME280;63173;49.086;33.418;2023-07-31T05:28:34;99829.75;;;39.57;31.06
74578;BME280;63173;49.086;33.418;2023-07-31T05:31:03;99822.72;;;39.93;30.03
74578;BME280;63173;49.086;33.418;2023-07-31T05:33:28;99828.88;;;40.52;29.99
74578;BME280;63173;49.086;33.418;2023-07-31T05:35:54;99835.69;;;39.94;30.21
74578;BME280;63173;49.086;33.418;2023-07-31T05:38:20;99841.94;;;40.18;29.79
74578;BME280;63173;49.086;33.418;2023-07-31T05:40:46;99841.78;;;39.87;30.74
74578;BME280;63173;49.086;33.418;2023-07-31T05:43:12;99848.50;;;40.50;30.21
74578;BME280;63173;49.086;33.418;2023-07-31T05:45:37;99859.28;;;40.00;30.72
74578;BME280;63173;49.086;33.418;2023-07-31T05:48:03;99854.00;;;39.38;31.74
74578;BME280;63173;49.086;33.418;2023-07-31T05:50:30;99855.50;;;39.19;31.71
74578;BME280;63173;49.086;33.418;2023-07-31T05:52:55;99864.66;;;38.41;33.48
74578;BME280;63173;49.086;33.418;2023-07-31T05:55:21;99860.66;;;39.70;30.95
74578;BME280;63173;49.086;33.418;2023-07-31T05:57:46;99854.41;;;39.16;31.95
74578;BME280;63173;49.086;33.418;2023-07-31T06:00:13;99851.16;;;40.33;30.12
74578;BME280;63173;49.086;33.418;2023-07-31T06:02:38;99860.97;;;39.72;30.95
74578;BME280;63173;49.086;33.418;2023-07-31T06:05:05;99850.97;;;40.88;29.21
74578;BME280;63173;49.086;33.418;2023-07-31T06:07:33;99855.22;;;41.03;28.29
74578;BME280;63173;49.086;33.418;2023-07-31T06:09:59;99847.66;;;41.63;27.86
74578;BME280;63173;49.086;33.418;2023-07-31T06:12:31;99847.94;;;41.65;28.37
74578;BME280;63173;49.086;33.418;2023-07-31T06:14:56;99860.59;;;39.99;29.76
74578;BME280;63173;49.086;33.418;2023-07-31T06:17:22;99856.44;;;40.40;29.41
74578;BME280;63173;49.086;33.418;2023-07-31T06:19:47;99850.56;;;40.75;29.29
74578;BME280;63173;49.086;33.418;2023-07-31T06:22:13;99848.97;;;42.15;27.10
74578;BME280;63173;49.086;33.418;2023-07-31T06:24:38;99858.81;;;40.98;28.45
74578;BME280;63173;49.086;33.418;2023-07-31T06:27:04;99862.31;;;41.87;27.06
74578;BME280;63173;49.086;33.418;2023-07-31T06:29:31;99863.66;;;39.95;29.88
74578;BME280;63173;49.086;33.418;2023-07-31T06:31:56;99866.25;;;40.39;29.25
74578;BME280;63173;49.086;33.418;2023-07-31T06:34:22;99866.75;;;41.14;28.11
74578;BME280;63173;49.086;33.418;2023-07-31T06:36:47;99859.47;;;41.13;28.43
74578;BME280;63173;49.086;33.418;2023-07-31T06:39:13;99872.66;;;39.94;29.33
74578;BME280;63173;49.086;33.418;2023-07-31T06:41:38;99866.16;;;40.79;28.59
74578;BME280;63173;49.086;33.418;2023-07-31T06:44:04;99861.66;;;40.98;27.98
74578;BME280;63173;49.086;33.418;2023-07-31T06:46:29;99863.63;;;40.35;29.35
74578;BME280;63173;49.086;33.418;2023-07-31T06:48:55;99877.81;;;38.82;31.94
74578;BME280;63173;49.086;33.418;2023-07-31T06:51:20;99878.19;;;39.33;31.38
74578;BME280;63173;49.086;33.418;2023-07-31T06:53:46;99870.00;;;39.90;30.61
74578;BME280;63173;49.086;33.418;2023-07-31T06:56:11;99876.22;;;39.54;30.53
74578;BME280;63173;49.086;33.418;2023-07-31T06:58:37;99884.78;;;38.81;31.88
74578;BME280;63173;49.086;33.418;2023-07-31T07:01:02;99868.16;;;40.27;29.70
74578;BME280;63173;49.086;33.418;2023-07-31T07:03:28;99878.94;;;38.46;32.03
74578;BME280;63173;49.086;33.418;2023-07-31T07:05:54;99868.97;;;39.53;30.75
74578;BME280;63173;49.086;33.418;2023-07-31T07:08:19;99867.19;;;40.56;29.23
74578;BME280;63173;49.086;33.418;2023-07-31T07:10:45;99863.25;;;40.99;28.63
74578;BME280;63173;49.086;33.418;2023-07-31T07:13:11;99863.59;;;40.81;29.27
74578;BME280;63173;49.086;33.418;2023-07-31T07:15:37;99884.31;;;41.13;28.58
74578;BME280;63173;49.086;33.418;2023-07-31T07:18:03;99876.56;;;40.82;29.03
74578;BME280;63173;49.086;33.418;2023-07-31T07:20:28;99876.41;;;40.05;29.72
74578;BME280;63173;49.086;33.418;2023-07-31T07:22:54;99879.03;;;39.69;30.72
74578;BME280;63173;49.086;33.418;2023-07-31T07:25:20;99874.81;;;39.64;30.58
74578;BME280;63173;49.086;33.418;2023-07-31T07:27:45;99883.00;;;40.57;29.79
74578;BME280;63173;49.086;33.418;2023-07-31T07:30:10;99886.22;;;39.35;31.26
74578;BME280;63173;49.086;33.418;2023-07-31T07:32:36;99892.59;;;39.30;30.73
74578;BME280;63173;49.086;33.418;2023-07-31T07:35:01;99888.50;;;38.73;31.64
74578;BME280;63173;49.086;33.418;2023-07-31T07:37:27;99890.84;;;39.32;31.05
74578;BME280;63173;49.086;33.418;2023-07-31T07:39:52;99890.50;;;38.57;32.45
74578;BME280;63173;49.086;33.418;2023-07-31T07:42:18;99898.63;;;39.17;31.64
74578;BME280;63173;49.086;33.418;2023-07-31T07:44:43;99893.44;;;40.40;29.82
74578;BME280;63173;49.086;33.418;2023-07-31T07:47:08;99899.75;;;39.55;30.92
74578;BME280;63173;49.086;33.418;2023-07-31T07:49:34;99899.66;;;39.84;30.36
74578;BME280;63173;49.086;33.418;2023-07-31T07:52:00;99897.00;;;39.45;31.29
74578;BME280;63173;49.086;33.418;2023-07-31T07:54:26;99910.06;;;38.55;32.46
74578;BME280;63173;49.086;33.418;2023-07-31T07:56:51;99900.94;;;38.90;31.98
74578;BME280;63173;49.086;33.418;2023-07-31T07:59:17;99909.97;;;39.17;31.43
74578;BME280;63173;49.086;33.418;2023-07-31T08:01:42;99914.53;;;38.71;32.21
74578;BME280;63173;49.086;33.418;2023-07-31T08:04:08;99914.00;;;38.58;32.04
74578;BME280;63173;49.086;33.418;2023-07-31T08:06:33;99915.03;;;38.46;32.07
74578;BME280;63173;49.086;33.418;2023-07-31T08:08:59;99912.09;;;38.79;31.90
74578;BME280;63173;49.086;33.418;2023-07-31T08:11:24;99904.66;;;39.10;31.53
74578;BME280;63173;49.086;33.418;2023-07-31T08:13:50;99905.34;;;39.34;31.33
74578;BME280;63173;49.086;33.418;2023-07-31T08:16:16;99910.06;;;39.23;31.53
74578;BME280;63173;49.086;33.418;2023-07-31T08:18:41;99916.72;;;39.20;31.22
74578;BME280;63173;49.086;33.418;2023-07-31T08:21:08;99914.91;;;38.26;32.59
74578;BME280;63173;49.086;33.418;2023-07-31T08:23:34;99919.38;;;39.09;31.59
74578;BME280;63173;49.086;33.418;2023-07-31T08:25:59;99928.00;;;39.29;31.65
74578;BME280;63173;49.086;33.418;2023-07-31T08:28:25;99931.47;;;38.80;31.61
74578;BME280;63173;49.086;33.418;2023-07-31T08:30:50;99929.72;;;38.68;32.11
74578;BME280;63173;49.086;33.418;2023-07-31T08:33:16;99934.59;;;40.24;29.95
74578;BME280;63173;49.086;33.418;2023-07-31T08:35:41;99937.97;;;39.24;31.46
74578;BME280;63173;49.086;33.418;2023-07-31T08:38:07;99936.78;;;38.49;32.47
74578;BME280;63173;49.086;33.418;2023-07-31T08:40:36;99938.94;;;38.78;31.59
74578;BME280;63173;49.086;33.418;2023-07-31T08:43:03;99941.72;;;38.25;33.04
74578;BME280;63173;49.086;33.418;2023-07-31T08:45:29;99947.47;;;39.51;31.36
74578;BME280;63173;49.086;33.418;2023-07-31T08:47:56;99930.78;;;39.93;31.25
74578;BME280;63173;49.086;33.418;2023-07-31T08:50:23;99925.91;;;39.00;31.35
74578;BME280;63173;49.086;33.418;2023-07-31T08:52:51;99927.38;;;40.23;29.70
74578;BME280;63173;49.086;33.418;2023-07-31T08:55:16;99929.50;;;41.20;28.72
74578;BME280;63173;49.086;33.418;2023-07-31T08:57:43;99927.66;;;41.85;27.75
74578;BME280;63173;49.086;33.418;2023-07-31T09:00:09;99931.50;;;40.88;28.98
74578;BME280;63173;49.086;33.418;2023-07-31T09:02:48;99937.59;;;39.81;30.44
74578;BME280;63173;49.086;33.418;2023-07-31T09:05:16;99933.34;;;40.46;29.90
74578;BME280;63173;49.086;33.418;2023-07-31T09:07:45;99926.41;;;40.32;30.48
74578;BME280;63173;49.086;33.418;2023-07-31T09:10:12;99940.97;;;41.05;29.06
74578;BME280;63173;49.086;33.418;2023-07-31T09:12:39;99934.97;;;39.77;31.06
74578;BME280;63173;49.086;33.418;2023-07-31T09:15:05;99943.81;;;41.26;29.34
74578;BME280;63173;49.086;33.418;2023-07-31T09:17:32;99945.50;;;40.06;30.64
74578;BME280;63173;49.086;33.418;2023-07-31T09:19:58;99946.91;;;39.81;30.64
74578;BME280;63173;49.086;33.418;2023-07-31T09:22:37;99942.59;;;39.86;31.00
74578;BME280;63173;49.086;33.418;2023-07-31T09:25:23;99937.19;;;40.43;29.97
74578;BME280;63173;49.086;33.418;2023-07-31T09:28:05;99947.50;;;40.40;30.08
74578;BME280;63173;49.086;33.418;2023-07-31T09:30:44;99947.00;;;41.13;28.97
74578;BME280;63173;49.086;33.418;2023-07-31T09:33:10;99944.44;;;40.44;29.32
74578;BME280;63173;49.086;33.418;2023-07-31T09:35:36;99941.63;;;42.20;27.75
74578;BME280;63173;49.086;33.418;2023-07-31T09:38:09;99953.28;;;41.79;28.12
74578;BME280;63173;49.086;33.418;2023-07-31T09:40:36;99939.16;;;41.02;28.32
74578;BME280;63173;49.086;33.418;2023-07-31T09:43:07;99940.53;;;42.76;26.50
74578;BME280;63173;49.086;33.418;2023-07-31T09:45:43;99943.34;;;41.64;27.83
74578;BME280;63173;49.086;33.418;2023-07-31T09:48:10;99953.34;;;41.22;29.19
74578;BME280;63173;49.086;33.418;2023-07-31T09:50:41;99940.44;;;41.58;28.81
74578;BME280;63173;49.086;33.418;2023-07-31T09:53:07;99933.28;;;40.40;31.00
74578;BME280;63173;49.086;33.418;2023-07-31T09:55:34;99937.41;;;41.10;29.55
74578;BME280;63173;49.086;33.418;2023-07-31T09:58:03;99940.22;;;41.31;29.17
74578;BME280;63173;49.086;33.418;2023-07-31T10:00:29;99944.47;;;42.20;28.13
74578;BME280;63173;49.086;33.418;2023-07-31T10:02:58;99941.25;;;42.49;27.61
74578;BME280;63173;49.086;33.418;2023-07-31T10:05:30;99932.50;;;42.16;27.56
74578;BME280;63173;49.086;33.418;2023-07-31T10:07:57;99938.72;;;42.08;28.07
74578;BME280;63173;49.086;33.418;2023-07-31T10:10:22;99928.44;;;42.33;27.44
74578;BME280;63173;49.086;33.418;2023-07-31T10:12:49;99930.16;;;41.72;28.71
74578;BME280;63173;49.086;33.418;2023-07-31T10:15:15;99935.56;;;42.60;27.50
74578;BME280;63173;49.086;33.418;2023-07-31T10:17:42;99930.16;;;41.35;28.94
74578;BME280;63173;49.086;33.418;2023-07-31T10:20:08;99926.56;;;43.55;26.33
74578;BME280;63173;49.086;33.418;2023-07-31T10:22:35;99912.50;;;42.10;27.10
74578;BME280;63173;49.086;33.418;2023-07-31T10:25:01;99922.22;;;43.27;26.11
74578;BME280;63173;49.086;33.418;2023-07-31T10:27:28;99922.16;;;43.71;25.50
74578;BME280;63173;49.086;33.418;2023-07-31T10:29:55;99913.06;;;43.00;26.27
74578;BME280;63173;49.086;33.418;2023-07-31T10:32:22;99909.72;;;44.89;23.98
74578;BME280;63173;49.086;33.418;2023-07-31T10:34:49;99914.63;;;44.53;24.52
74578;BME280;63173;49.086;33.418;2023-07-31T10:40:02;99914.97;;;44.85;24.05
74578;BME280;63173;49.086;33.418;2023-07-31T10:42:36;99920.41;;;44.42;24.19
74578;BME280;63173;49.086;33.418;2023-07-31T10:45:08;99918.56;;;45.26;23.81
74578;BME280;63173;49.086;33.418;2023-07-31T10:47:45;99916.44;;;42.93;26.07
74578;BME280;63173;49.086;33.418;2023-07-31T10:50:12;99907.91;;;43.38;25.28
74578;BME280;63173;49.086;33.418;2023-07-31T10:52:38;99907.81;;;43.82;25.06
74578;BME280;63173;49.086;33.418;2023-07-31T10:55:25;99909.34;;;42.61;26.81
74578;BME280;63173;49.086;33.418;2023-07-31T10:57:51;99907.28;;;44.00;24.16
74578;BME280;63173;49.086;33.418;2023-07-31T11:02:56;99902.91;;;45.27;22.84
74578;BME280;63173;49.086;33.418;2023-07-31T11:05:44;99904.69;;;46.32;22.05
74578;BME280;63173;49.086;33.418;2023-07-31T11:08:14;99904.59;;;46.93;21.51
74578;BME280;63173;49.086;33.418;2023-07-31T11:10:40;99893.72;;;46.86;21.52
74578;BME280;63173;49.086;33.418;2023-07-31T11:13:06;99894.75;;;46.33;22.31
74578;BME280;63173;49.086;33.418;2023-07-31T11:15:32;99892.03;;;46.78;21.81
74578;BME280;63173;49.086;33.418;2023-07-31T11:17:57;99901.06;;;45.83;22.75
74578;BME280;63173;49.086;33.418;2023-07-31T11:20:25;99895.97;;;46.37;22.07
74578;BME280;63173;49.086;33.418;2023-07-31T11:22:50;99899.88;;;46.40;22.31
74578;BME280;63173;49.086;33.418;2023-07-31T11:25:16;99891.91;;;47.02;21.83
74578;BME280;63173;49.086;33.418;2023-07-31T11:27:43;99884.59;;;45.89;23.19
74578;BME280;63173;49.086;33.418;2023-07-31T11:30:09;99890.88;;;46.68;22.21
74578;BME280;63173;49.086;33.418;2023-07-31T11:32:38;99892.47;;;46.82;22.24
74578;BME280;63173;49.086;33.418;2023-07-31T11:35:03;99884.44;;;45.22;23.03
74578;BME280;63173;49.086;33.418;2023-07-31T11:37:41;99888.19;;;46.14;22.68
74578;BME280;63173;49.086;33.418;2023-07-31T11:40:07;99871.44;;;46.55;22.35
74578;BME280;63173;49.086;33.418;2023-07-31T11:42:35;99873.16;;;45.00;24.34
74578;BME280;63173;49.086;33.418;2023-07-31T11:45:04;99875.28;;;46.02;23.16
74578;BME280;63173;49.086;33.418;2023-07-31T11:47:30;99885.19;;;47.57;21.59
74578;BME280;63173;49.086;33.418;2023-07-31T11:49:57;99886.63;;;47.06;21.92
74578;BME280;63173;49.086;33.418;2023-07-31T11:52:23;99889.91;;;45.55;23.80
74578;BME280;63173;49.086;33.418;2023-07-31T11:54:49;99889.56;;;46.07;23.27
74578;BME280;63173;49.086;33.418;2023-07-31T11:57:16;99890.06;;;46.86;22.47
74578;BME280;63173;49.086;33.418;2023-07-31T11:59:42;99894.88;;;43.09;26.86
74578;BME280;63173;49.086;33.418;2023-07-31T12:02:08;99888.72;;;44.69;24.67
74578;BME280;63173;49.086;33.418;2023-07-31T12:04:34;99889.69;;;45.48;23.90
74578;BME280;63173;49.086;33.418;2023-07-31T12:07:02;99885.41;;;45.30;24.05
74578;BME280;63173;49.086;33.418;2023-07-31T12:09:28;99878.53;;;45.93;23.57
74578;BME280;63173;49.086;33.418;2023-07-31T12:11:53;99874.53;;;46.01;23.25
74578;BME280;63173;49.086;33.418;2023-07-31T12:14:24;99877.13;;;44.92;24.72
74578;BME280;63173;49.086;33.418;2023-07-31T12:16:58;99884.78;;;45.13;24.66
74578;BME280;63173;49.086;33.418;2023-07-31T12:19:25;99887.63;;;45.43;24.00
74578;BME280;63173;49.086;33.418;2023-07-31T12:21:55;99883.25;;;46.33;22.97
74578;BME280;63173;49.086;33.418;2023-07-31T12:24:21;99881.56;;;46.00;23.63
74578;BME280;63173;49.086;33.418;2023-07-31T12:26:47;99875.44;;;46.09;23.32
74578;BME280;63173;49.086;33.418;2023-07-31T12:29:13;99872.00;;;45.44;24.09
74578;BME280;63173;49.086;33.418;2023-07-31T12:31:41;99881.34;;;45.50;24.31
74578;BME280;63173;49.086;33.418;2023-07-31T12:34:15;99884.97;;;46.41;22.85
74578;BME280;63173;49.086;33.418;2023-07-31T12:36:42;99881.63;;;44.35;25.36
74578;BME280;63173;49.086;33.418;2023-07-31T12:39:08;99871.25;;;44.73;24.48
74578;BME280;63173;49.086;33.418;2023-07-31T12:41:33;99874.63;;;45.90;23.23
74578;BME280;63173;49.086;33.418;2023-07-31T12:43:59;99885.31;;;45.41;23.21
74578;BME280;63173;49.086;33.418;2023-07-31T12:46:24;99876.91;;;46.90;21.85
74578;BME280;63173;49.086;33.418;2023-07-31T12:48:50;99875.16;;;47.19;21.30
74578;BME280;63173;49.086;33.418;2023-07-31T12:51:15;99879.03;;;46.15;22.76
74578;BME280;63173;49.086;33.418;2023-07-31T12:53:41;99869.50;;;46.26;22.86
74578;BME280;63173;49.086;33.418;2023-07-31T12:56:06;99878.34;;;45.37;23.98
74578;BME280;63173;49.086;33.418;2023-07-31T12:58:31;99877.69;;;45.49;23.67